Time;durP1;ratioP1;P1;durP2;ratioP2;P2;SDS_P1;SDS_P2;PMS_P1;PMS_P2;Temp;Humidity;BMP_temperature;BMP_pressure;BME280_temperature;BME280_humidity;BME280_pressure;Samples;Min_cycle;Max_cycle;Signal;HPM_P1;HPM_P2
2023/07/22 00:01:57;;;;;;;5.20;4.43;;;;;;;-145.68;100.00;73609.72;10330689;28;20225;-67
2023/07/22 00:06:57;;;;;;;7.93;5.00;;;;;;;-145.68;100.00;73607.72;10331128;28;20305;-68
2023/07/22 00:11:57;;;;;;;5.82;3.88;;;;;;;-145.68;100.00;73613.72;10330905;28;20221;-68
2023/07/22 00:16:58;;;;;;;7.70;4.93;;;;;;;-145.68;100.00;73601.72;10330830;28;20229;-67
2023/07/22 00:21:58;;;;;;;6.35;4.45;;;;;;;-145.68;100.00;73603.72;10330818;28;20193;-67
2023/07/22 00:26:58;;;;;;;6.07;4.35;;;;;;;-145.68;100.00;73607.72;10330639;28;20232;-67
2023/07/22 00:31:59;;;;;;;4.78;4.25;;;;;;;-145.68;100.00;73603.72;10330578;28;20190;-67
2023/07/22 00:36:59;;;;;;;6.85;4.47;;;;;;;-145.68;100.00;73601.72;10312724;28;20213;-67
2023/07/22 00:42:00;;;;;;;4.40;4.00;;;;;;;-145.68;100.00;73619.72;10313031;28;20201;-67
2023/07/22 00:47:00;;;;;;;5.65;4.45;;;;;;;-145.68;100.00;73623.72;10330106;28;20704;-67
2023/07/22 00:52:02;;;;;;;5.75;4.78;;;;;;;-145.68;100.00;73643.72;10329004;28;20656;-67
2023/07/22 00:57:03;;;;;;;6.50;4.25;;;;;;;-145.68;100.00;73627.72;10329841;28;20298;-67
2023/07/22 01:02:03;;;;;;;6.57;5.10;;;;;;;-145.68;100.00;73645.72;10329538;28;20186;-68
2023/07/22 01:07:08;;;;;;;5.85;4.65;;;;;;;-145.68;100.00;73671.69;10312099;28;20629;-67
2023/07/22 01:12:09;;;;;;;7.07;4.82;;;;;;;-145.68;100.00;73661.69;10313664;28;20744;-67
2023/07/22 01:17:11;;;;;;;8.80;4.32;;;;;;;-145.68;100.00;73649.72;10320339;28;20332;-67
2023/07/22 01:22:13;;;;;;;6.57;5.32;;;;;;;-145.68;100.00;73649.72;10304135;28;20664;-67
2023/07/22 01:27:14;;;;;;;10.25;5.50;;;;;;;-145.68;100.00;73629.72;10337381;28;20293;-68
2023/07/22 01:32:14;;;;;;;11.63;6.30;;;;;;;-145.68;100.00;73609.72;10337343;28;20569;-68
2023/07/22 01:37:14;;;;;;;6.43;5.78;;;;;;;-145.68;100.00;73617.72;10336980;28;20198;-68
2023/07/22 01:42:15;;;;;;;7.57;5.75;;;;;;;-145.68;100.00;73623.72;10319348;28;20201;-68
2023/07/22 01:47:15;;;;;;;8.10;6.70;;;;;;;-145.68;100.00;73633.72;10336621;28;20230;-68
2023/07/22 01:52:15;;;;;;;7.15;6.25;;;;;;;-145.68;100.00;73621.72;10319059;28;20277;-68
2023/07/22 01:57:16;;;;;;;9.57;7.18;;;;;;;-145.68;100.00;73629.72;10336231;28;20217;-68
2023/07/22 02:02:16;;;;;;;10.10;6.53;;;;;;;-145.68;100.00;73617.72;10318794;28;20190;-68
2023/07/22 02:07:17;;;;;;;10.38;6.65;;;;;;;-145.68;100.00;73629.72;10318359;28;20236;-68
2023/07/22 02:12:18;;;;;;;9.90;7.35;;;;;;;-145.68;100.00;73631.72;10318571;28;20198;-68
2023/07/22 02:17:18;;;;;;;8.38;7.50;;;;;;;-145.68;100.00;73633.72;10335330;28;20234;-68
2023/07/22 02:22:18;;;;;;;7.90;7.05;;;;;;;-145.68;100.00;73627.72;10317979;28;20653;-68
2023/07/22 02:27:19;;;;;;;15.55;8.35;;;;;;;-145.68;100.00;73619.72;10334733;28;20230;-68
2023/07/22 02:32:19;;;;;;;9.90;8.35;;;;;;;-145.68;100.00;73629.72;10317500;28;20186;-68
2023/07/22 02:37:20;;;;;;;12.38;8.55;;;;;;;-145.68;100.00;73631.72;10335086;28;20228;-68
2023/07/22 02:42:20;;;;;;;9.75;8.60;;;;;;;-145.68;100.00;73633.72;10334348;28;20221;-68
2023/07/22 02:47:21;;;;;;;16.02;9.50;;;;;;;-145.68;100.00;73639.72;10334530;28;20225;-68
2023/07/22 02:52:21;;;;;;;12.18;8.45;;;;;;;-145.68;100.00;73657.69;10334129;28;20277;-68
2023/07/22 02:57:21;;;;;;;12.18;10.10;;;;;;;-145.68;100.00;73685.69;10316746;28;20206;-68
2023/07/22 03:02:22;;;;;;;13.18;7.82;;;;;;;-145.68;100.00;73679.69;10316297;28;20190;-68
2023/07/22 03:07:22;;;;;;;9.65;8.27;;;;;;;-145.68;100.00;73675.69;10333318;28;20224;-68
2023/07/22 03:12:23;;;;;;;10.98;7.68;;;;;;;-145.68;100.00;73687.69;10333811;28;20198;-68
2023/07/22 03:17:23;;;;;;;12.48;8.15;;;;;;;-145.68;100.00;73687.69;10315474;28;20238;-68
2023/07/22 03:22:23;;;;;;;13.73;8.23;;;;;;;-145.68;100.00;73697.69;10315802;28;20247;-68
2023/07/22 03:27:24;;;;;;;11.47;8.77;;;;;;;-145.68;100.00;73699.69;10332760;28;20313;-68
2023/07/22 03:32:24;;;;;;;9.68;8.45;;;;;;;-145.68;100.00;73681.69;10331954;28;20220;-68
2023/07/22 03:37:25;;;;;;;11.55;8.63;;;;;;;-145.68;100.00;73685.69;10331338;28;20213;-68
2023/07/22 03:42:25;;;;;;;12.75;8.35;;;;;;;-145.68;100.00;73677.69;10331566;28;20201;-68
2023/07/22 03:47:25;;;;;;;9.50;8.43;;;;;;;-145.68;100.00;73687.69;10332269;28;20317;-67
2023/07/22 03:52:26;;;;;;;14.13;8.93;;;;;;;-145.68;100.00;73683.69;10331936;28;20194;-68
2023/07/22 03:57:27;;;;;;;8.77;7.80;;;;;;;-145.68;100.00;73681.69;10331731;28;20210;-68
2023/07/22 04:02:27;;;;;;;8.90;8.00;;;;;;;-145.68;100.00;73677.69;10331398;28;20194;-68
2023/07/22 04:07:27;;;;;;;12.15;8.27;;;;;;;-145.68;100.00;73671.69;10313673;28;20624;-68
2023/07/22 04:12:28;;;;;;;9.27;8.38;;;;;;;-145.68;100.00;73675.69;10313887;28;20547;-68
2023/07/22 04:17:29;;;;;;;9.47;8.47;;;;;;;-145.68;100.00;73669.69;10330701;28;20305;-68
2023/07/22 04:22:29;;;;;;;11.27;8.25;;;;;;;-145.68;100.00;73661.69;10330998;28;20563;-68
2023/07/22 04:27:32;;;;;;;10.33;7.10;;;;;;;-145.68;100.00;73651.72;10313082;28;20305;-68
2023/07/22 04:32:33;;;;;;;7.30;6.57;;;;;;;-145.68;100.00;73615.72;10330462;28;20281;-68
2023/07/22 04:37:33;;;;;;;9.07;7.07;;;;;;;-145.68;100.00;73591.75;10330368;28;20758;-68
2023/07/22 04:42:33;;;;;;;8.27;6.38;;;;;;;-145.68;100.00;73579.75;10330154;28;20201;-68
2023/07/22 04:47:34;;;;;;;9.15;6.65;;;;;;;-145.68;100.00;73555.75;10329896;28;20230;-68
2023/07/22 04:52:37;;;;;;;9.50;7.00;;;;;;;-145.68;100.00;73553.75;10329901;28;20284;-69
2023/07/22 04:57:39;;;;;;;8.15;6.50;;;;;;;-145.68;100.00;73537.78;10329825;28;20213;-70
2023/07/22 05:02:40;;;;;;;9.82;6.85;;;;;;;-145.68;100.00;73507.78;10329779;28;20273;-70
2023/07/22 05:07:40;;;;;;;9.90;6.82;;;;;;;-145.68;100.00;73487.81;10329545;28;20660;-70
2023/07/22 05:12:41;;;;;;;9.23;7.78;;;;;;;-145.68;100.00;73475.81;10329534;28;20251;-71
2023/07/22 05:17:42;;;;;;;8.85;6.82;;;;;;;-145.68;100.00;73463.81;10370452;22;20283;-68
2023/07/22 05:22:42;;;;;;;9.85;7.65;;;;;;;-145.68;100.00;73429.84;10368366;28;20601;-68
2023/07/22 05:27:42;;;;;;;9.45;6.40;;;;;;;-145.68;100.00;73413.84;10389568;28;20224;-65
2023/07/22 05:32:43;;;;;;;9.85;6.05;;;;;;;-145.68;100.00;73447.81;10410778;28;20193;-65
2023/07/22 05:37:43;;;;;;;11.10;6.93;;;;;;;-145.68;100.00;73431.84;10410048;28;20204;-64
2023/07/22 05:42:43;;;;;;;9.40;7.07;;;;;;;-145.68;100.00;73431.84;10410525;28;20188;-63
2023/07/22 05:47:44;;;;;;;7.93;6.68;;;;;;;-145.68;100.00;73467.81;10410101;28;20255;-64
2023/07/22 05:52:45;;;;;;;8.02;5.90;;;;;;;-145.68;100.00;73457.81;10422625;28;20272;-63
2023/07/22 05:57:45;;;;;;;10.60;6.45;;;;;;;-145.68;100.00;73423.84;10413587;28;20216;-63
2023/07/22 06:02:46;;;;;;;11.52;6.50;;;;;;;-145.68;100.00;73431.84;10419426;28;20322;-64
2023/07/22 06:07:46;;;;;;;9.25;6.57;;;;;;;-145.68;93.86;73415.84;10417587;28;20246;-64
2023/07/22 06:12:46;;;;;;;11.70;6.68;;;;;;;-145.68;90.20;73391.84;10417033;28;20207;-64
2023/07/22 06:17:47;;;;;;;11.80;7.60;;;;;;;-145.68;89.34;73441.81;10416965;28;20243;-64
2023/07/22 06:22:47;;;;;;;8.55;6.75;;;;;;;-145.68;84.71;73295.94;10416916;28;20193;-64
2023/07/22 06:27:48;;;;;;;8.55;6.15;;;;;;;-145.68;75.11;73275.94;10416590;28;20231;-64
2023/07/22 06:32:48;;;;;;;10.27;6.93;;;;;;;-145.68;71.64;73291.94;10416639;28;20291;-65
2023/07/22 06:37:49;;;;;;;7.68;5.85;;;;;;;-145.68;70.59;73205.97;10416029;28;20200;-66
2023/07/22 06:42:49;;;;;;;12.20;6.65;;;;;;;-145.68;67.42;73184.00;10416307;28;20199;-66
2023/07/22 06:47:49;;;;;;;11.45;7.00;;;;;;;-145.68;63.88;73225.97;10411596;28;21099;-65
2023/07/22 06:52:50;;;;;;;9.02;6.55;;;;;;;-145.68;62.07;73084.06;10412387;28;20686;-65
2023/07/22 06:57:50;;;;;;;8.57;6.10;;;;;;;-145.68;57.28;73048.09;10411567;28;20714;-65
2023/07/22 07:02:51;;;;;;;9.93;6.20;;;;;;;-145.68;56.13;72994.13;10408233;28;20573;-64
2023/07/22 07:07:51;;;;;;;9.23;5.95;;;;;;;-145.68;55.11;73006.13;10413877;28;20602;-66
2023/07/22 07:12:51;;;;;;;11.52;5.88;;;;;;;-145.68;57.91;73050.09;10412225;28;20193;-65
2023/07/22 07:17:52;;;;;;;9.05;6.25;;;;;;;-145.68;56.88;73132.03;10413495;28;20315;-65
2023/07/22 07:22:52;;;;;;;10.00;6.13;;;;;;;-145.68;58.30;73178.00;10413046;28;20190;-64
2023/07/22 07:27:52;;;;;;;7.28;5.38;;;;;;;-145.68;58.27;73186.00;10413013;28;20220;-65
2023/07/22 07:32:53;;;;;;;7.40;6.32;;;;;;;-145.68;56.88;73196.00;10411616;28;20200;-64
2023/07/22 07:37:53;;;;;;;11.07;6.30;;;;;;;-145.68;55.95;73092.06;10406476;28;20291;-65
2023/07/22 07:42:55;;;;;;;9.07;6.47;;;;;;;-145.68;54.66;73188.00;10396570;28;20205;-65
2023/07/22 07:47:55;;;;;;;10.65;6.55;;;;;;;-145.68;53.35;73070.06;10403467;28;20609;-65
2023/07/22 07:52:56;;;;;;;8.73;6.35;;;;;;;-145.68;55.13;73120.03;10409152;28;20215;-65
2023/07/22 07:57:56;;;;;;;10.77;6.40;;;;;;;-145.68;50.32;72826.25;10411489;28;20200;-66
2023/07/22 08:02:56;;;;;;;8.88;5.65;;;;;;;-145.68;50.36;72798.28;10410883;28;20185;-66
2023/07/22 08:07:57;;;;;;;8.50;6.35;;;;;;;-145.68;51.07;72924.19;10411058;28;20228;-65
2023/07/22 08:12:57;;;;;;;7.55;5.90;;;;;;;-145.68;47.43;72756.31;10411285;28;20196;-65
2023/07/22 08:17:58;;;;;;;8.90;6.30;;;;;;;-145.68;49.50;73008.13;10410688;28;20244;-65
2023/07/22 08:22:58;;;;;;;11.55;7.18;;;;;;;-145.68;52.14;73082.06;10408860;28;20565;-64
2023/07/22 08:27:59;;;;;;;10.35;6.88;;;;;;;-145.68;48.30;72864.22;10404056;28;20228;-65
2023/07/22 08:32:59;;;;;;;9.20;6.30;;;;;;;-145.68;47.67;72714.34;10409246;28;20189;-65
2023/07/22 08:37:59;;;;;;;8.52;5.43;;;;;;;-145.68;46.01;72700.34;10408076;28;20212;-64
2023/07/22 08:43:00;;;;;;;12.40;5.70;;;;;;;-145.68;46.49;72760.31;10408858;28;20681;-65
2023/07/22 08:48:04;;;;;;;8.40;5.47;;;;;;;-145.68;45.98;72776.28;10399893;28;20746;-64
2023/07/22 08:53:05;;;;;;;7.35;5.88;;;;;;;-145.68;45.50;72762.31;10409589;28;20199;-66
2023/07/22 08:58:09;;;;;;;5.40;4.43;;;;;;;-145.68;44.45;72746.31;10391779;28;20200;-64
2023/07/22 09:03:11;;;;;;;5.45;4.45;;;;;;;-145.68;44.23;72768.31;10410103;28;20231;-64
2023/07/22 09:08:11;;;;;;;4.57;3.90;;;;;;;-145.68;45.25;72776.28;10407677;28;20216;-66
2023/07/22 09:13:14;;;;;;;5.82;4.55;;;;;;;-145.68;42.32;72586.44;10409592;28;20196;-66
2023/07/22 09:18:15;;;;;;;7.13;4.50;;;;;;;-145.68;43.27;72704.34;10401438;28;20603;-67
2023/07/22 09:23:16;;;;;;;4.30;3.85;;;;;;;-145.68;39.86;72486.53;10404857;28;20223;-67
2023/07/22 09:28:16;;;;;;;5.45;3.33;;;;;;;-145.68;38.44;72396.63;10407404;28;20216;-65
2023/07/22 09:33:21;;;;;;;6.88;3.40;;;;;;;-145.68;40.52;72472.53;10407328;28;20215;-65
2023/07/22 09:38:24;;;;;;;8.38;3.63;;;;;;;-145.68;38.70;72464.56;10414103;28;20215;-66
2023/07/22 09:43:25;;;;;;;4.43;3.10;;;;;;;-145.68;37.61;72456.56;10414107;28;20204;-67
2023/07/22 09:48:26;;;;;;;5.57;3.20;;;;;;;-145.68;38.74;72484.53;10415451;28;20220;-66
2023/07/22 09:53:26;;;;;;;4.03;3.30;;;;;;;-145.68;41.07;72886.22;10425697;28;20713;-66
2023/07/22 09:58:29;;;;;;;4.35;3.00;;;;;;;-145.68;42.27;72858.22;10457459;28;20290;-65
2023/07/22 10:03:31;;;;;;;5.22;2.92;;;;;;;-145.68;40.76;72742.31;10437822;28;20525;-68
2023/07/22 10:08:34;;;;;;;3.33;2.90;;;;;;;-145.68;41.17;72852.25;10440310;28;20634;-66
2023/07/22 10:13:34;;;;;;;4.55;3.17;;;;;;;-145.68;43.83;73054.09;10458274;28;20192;-65
2023/07/22 10:18:37;;;;;;;3.92;3.22;;;;;;;-145.68;42.77;72800.28;10457777;28;20223;-65
2023/07/22 10:23:38;;;;;;;4.30;2.75;;;;;;;-145.68;40.43;72702.34;10440449;28;20200;-66
2023/07/22 10:28:40;;;;;;;5.10;2.75;;;;;;;-145.68;38.98;72560.47;10457603;28;20223;-66
2023/07/22 10:33:40;;;;;;;3.45;2.45;;;;;;;-145.68;38.93;72728.34;10418812;28;20672;-66
2023/07/22 10:38:41;;;;;;;3.17;2.60;;;;;;;-145.68;39.26;72708.34;10415157;28;20216;-66
2023/07/22 10:43:42;;;;;;;2.75;2.17;;;;;;;-145.68;39.44;72684.38;10414869;28;20670;-66
2023/07/22 10:48:42;;;;;;;2.90;2.67;;;;;;;-145.68;39.97;72654.41;10415891;28;20228;-66
2023/07/22 10:53:47;;;;;;;4.80;2.80;;;;;;;-145.68;40.30;72696.34;10416078;28;20732;-66
2023/07/22 10:58:47;;;;;;;4.13;2.70;;;;;;;-145.68;40.90;72708.34;10415704;28;20711;-66
2023/07/22 11:04:11;;;;;;;2.78;2.58;;;;;;;-145.68;39.73;72668.38;10410189;28;20188;-66
2023/07/22 11:09:33;;;;;;;5.45;3.00;;;;;;;-145.68;40.77;72756.31;10410549;28;20307;-66
2023/07/22 11:14:35;;;;;;;3.15;2.65;;;;;;;-145.68;40.80;72800.28;10404976;28;20576;-66
2023/07/22 11:19:35;;;;;;;3.30;2.70;;;;;;;-145.68;38.73;72608.44;10413253;28;20764;-67
2023/07/22 11:24:36;;;;;;;2.90;2.60;;;;;;;-145.68;40.27;72710.34;10428463;22;20371;-70
2023/07/22 11:29:36;;;;;;;3.00;2.72;;;;;;;-145.68;40.19;72734.31;10413338;28;20193;-68
2023/07/22 11:34:40;;;;;;;3.65;2.63;;;;;;;-145.68;38.92;72602.44;10446968;28;20563;-69
2023/07/22 11:39:41;;;;;;;3.55;2.72;;;;;;;-145.68;37.98;72532.50;10454941;28;20989;-69
2023/07/22 11:44:42;;;;;;;3.25;2.50;;;;;;;-145.68;36.39;72278.72;10454724;28;20296;-69
2023/07/22 11:49:47;;;;;;;2.65;2.28;;;;;;;-145.68;37.35;72458.56;10454088;28;20663;-70
2023/07/22 11:54:47;;;;;;;3.05;2.03;;;;;;;-145.68;35.37;72188.81;10451975;28;20689;-69
2023/07/22 11:59:52;;;;;;;2.42;2.22;;;;;;;-145.68;34.38;72260.72;10453619;28;20203;-70
2023/07/22 12:04:57;;;;;;;3.90;2.30;;;;;;;-145.68;34.78;72272.72;10454006;28;20828;-70
2023/07/22 12:10:00;;;;;;;2.97;2.40;;;;;;;-145.68;35.06;72208.78;10454185;28;20192;-70
2023/07/22 12:15:17;;;;;;;3.35;2.20;;;;;;;-145.68;35.69;72458.56;10453691;28;20211;-70
2023/07/22 12:20:18;;;;;;;6.47;2.67;;;;;;;-145.68;37.12;72464.56;10453651;28;20192;-70
2023/07/22 12:25:19;;;;;;;3.08;2.50;;;;;;;-145.68;36.51;72426.59;10453352;28;20305;-70
2023/07/22 12:30:20;;;;;;;2.50;2.30;;;;;;;-145.68;34.26;72186.81;10452994;28;20275;-69
2023/07/22 12:35:20;;;;;;;2.70;2.50;;;;;;;-145.68;36.28;72498.53;10449866;28;20237;-69
2023/07/22 12:40:20;;;;;;;5.13;2.85;;;;;;;-145.68;36.03;72492.53;10452784;28;20203;-69
2023/07/22 12:45:22;;;;;;;3.65;2.50;;;;;;;-145.68;36.76;72520.50;10452962;28;20339;-69
2023/07/22 12:50:22;;;;;;;4.80;2.60;;;;;;;-145.68;36.53;72398.63;10452467;28;20194;-69
2023/07/22 12:55:22;;;;;;;2.92;2.60;;;;;;;-145.68;36.86;72432.59;10451232;28;20580;-69
2023/07/22 13:00:23;;;;;;;2.50;2.30;;;;;;;-145.68;36.82;72464.56;10452474;28;20353;-69
2023/07/22 13:05:24;;;;;;;3.25;2.90;;;;;;;-145.68;35.77;72408.59;10452023;28;20227;-70
2023/07/22 13:10:25;;;;;;;3.00;2.60;;;;;;;-145.68;36.15;72452.56;10459065;28;20199;-70
2023/07/22 13:15:25;;;;;;;2.80;2.42;;;;;;;-145.68;37.56;72628.41;10460276;28;20200;-70
2023/07/22 13:20:26;;;;;;;3.08;2.67;;;;;;;-145.68;38.13;72646.41;10460848;28;20184;-70
2023/07/22 13:25:26;;;;;;;3.55;3.13;;;;;;;-145.68;37.35;72578.47;10459846;28;20238;-70
2023/07/22 13:30:27;;;;;;;2.63;2.42;;;;;;;-145.68;37.66;72450.56;10460155;28;20191;-69
2023/07/22 13:35:27;;;;;;;2.85;2.10;;;;;;;-145.68;36.16;72404.59;10459879;28;20650;-70
2023/07/22 13:40:27;;;;;;;2.88;2.58;;;;;;;-145.68;35.07;72412.59;10458816;28;20286;-69
2023/07/22 13:45:28;;;;;;;4.78;2.83;;;;;;;-145.68;36.06;72406.59;10459488;28;20226;-70
2023/07/22 13:50:28;;;;;;;3.22;2.67;;;;;;;-145.68;37.00;72380.63;10458885;28;20274;-70
2023/07/22 13:55:29;;;;;;;2.75;2.50;;;;;;;-145.68;35.24;72234.75;10473314;28;20210;-70
2023/07/22 14:00:29;;;;;;;4.07;2.70;;;;;;;-145.68;32.16;71901.09;10495805;28;20557;-70
2023/07/22 14:05:31;;;;;;;4.00;2.72;;;;;;;-145.68;31.59;71861.13;10457562;28;20261;-72
2023/07/22 14:10:31;;;;;;;2.83;2.42;;;;;;;-145.68;33.90;72168.81;10458009;28;20187;-71
2023/07/22 14:15:32;;;;;;;4.38;2.95;;;;;;;-145.68;34.88;72134.84;10457767;28;20188;-70
2023/07/22 14:20:33;;;;;;;3.83;2.50;;;;;;;-145.68;33.97;72030.94;10456110;28;20211;-70
2023/07/22 14:25:34;;;;;;;2.67;2.45;;;;;;;-145.68;33.92;72186.81;10455747;28;20752;-70
2023/07/22 14:30:34;;;;;;;3.10;2.80;;;;;;;-145.68;35.32;72418.59;10455893;28;20191;-71
2023/07/22 14:35:35;;;;;;;3.17;2.50;;;;;;;-145.68;33.63;72122.88;10455953;28;20753;-70
2023/07/22 14:40:35;;;;;;;3.85;2.50;;;;;;;-145.68;30.40;71661.31;10454179;28;20218;-70
2023/07/22 14:45:36;;;;;;;3.63;2.83;;;;;;;-145.68;29.37;71549.44;10455921;28;20239;-68
2023/07/22 14:50:36;;;;;;;3.35;2.65;;;;;;;-145.68;33.76;72252.75;10455612;28;20444;-70
2023/07/22 14:55:36;;;;;;;3.13;2.83;;;;;;;-145.68;34.81;72298.69;10456032;28;20611;-70
2023/07/22 15:00:37;;;;;;;5.65;3.05;;;;;;;-145.68;34.76;72248.75;10456209;28;20227;-70
2023/07/22 15:05:37;;;;;;;5.20;3.08;;;;;;;-145.68;33.58;72132.84;10455362;28;20220;-70
2023/07/22 15:10:37;;;;;;;2.72;2.53;;;;;;;-145.68;33.65;72136.84;10454324;28;20272;-70
2023/07/22 15:15:38;;;;;;;3.33;3.00;;;;;;;-145.68;36.75;72392.63;10455296;28;20204;-71
2023/07/22 15:20:38;;;;;;;8.07;3.50;;;;;;;-145.68;35.47;72378.63;10454780;28;20275;-70
2023/07/22 15:25:38;;;;;;;6.20;3.28;;;;;;;-145.68;36.85;72462.56;10455401;28;20228;-70
2023/07/22 15:30:39;;;;;;;3.80;3.13;;;;;;;-145.68;36.62;72410.59;10454101;28;20295;-70
2023/07/22 15:35:39;;;;;;;3.75;3.20;;;;;;;-145.68;35.15;72258.75;10453493;28;20184;-70
2023/07/22 15:40:40;;;;;;;4.00;3.03;;;;;;;-145.68;35.14;72268.72;10454445;28;20196;-71
2023/07/22 15:45:40;;;;;;;3.38;3.08;;;;;;;-145.68;35.78;72422.59;10454494;28;20705;-71
2023/07/22 15:50:40;;;;;;;4.03;3.20;;;;;;;-145.68;36.82;72516.50;10454613;28;20200;-71
2023/07/22 15:55:42;;;;;;;3.55;2.95;;;;;;;-145.68;37.67;72460.56;10454097;28;20249;-70
2023/07/22 16:00:42;;;;;;;3.47;3.15;;;;;;;-145.68;36.63;72452.56;10452952;28;20195;-71
2023/07/22 16:05:43;;;;;;;5.72;3.42;;;;;;;-145.68;36.81;72440.56;10454969;28;20227;-71
2023/07/22 16:10:44;;;;;;;3.90;3.50;;;;;;;-145.68;37.56;72562.47;10453978;28;20215;-70
2023/07/22 16:15:45;;;;;;;4.80;3.15;;;;;;;-145.68;38.23;72520.50;10454182;28;20234;-70
2023/07/22 16:20:45;;;;;;;4.05;3.20;;;;;;;-145.68;37.30;72484.53;10453448;28;20249;-70
2023/07/22 16:25:45;;;;;;;3.83;3.35;;;;;;;-145.68;38.13;72576.47;10453605;28;20215;-71
2023/07/22 16:30:46;;;;;;;4.07;3.30;;;;;;;-145.68;37.98;72472.53;10453383;28;20199;-71
2023/07/22 16:35:46;;;;;;;9.73;3.60;;;;;;;-145.68;37.55;72468.56;10452938;28;20195;-70
2023/07/22 16:40:46;;;;;;;3.88;3.47;;;;;;;-145.68;38.43;72498.53;10453283;28;20597;-70
2023/07/22 16:45:47;;;;;;;4.70;3.42;;;;;;;-145.68;37.56;72498.53;10452208;28;20589;-70
2023/07/22 16:50:47;;;;;;;5.45;3.42;;;;;;;-145.68;38.01;72536.50;10452769;28;20212;-70
2023/07/22 16:55:48;;;;;;;6.43;3.72;;;;;;;-145.68;38.52;72520.50;10452647;28;20332;-70
2023/07/22 17:00:48;;;;;;;4.30;3.60;;;;;;;-145.68;38.78;72548.47;10452319;28;20700;-71
2023/07/22 17:05:48;;;;;;;4.47;3.55;;;;;;;-145.68;39.29;72526.50;10452592;28;20234;-71
2023/07/22 17:10:49;;;;;;;4.60;3.80;;;;;;;-145.68;39.65;72554.47;10452143;28;20207;-70
2023/07/22 17:15:49;;;;;;;4.05;3.65;;;;;;;-145.68;39.82;72610.44;10452474;28;21021;-70
2023/07/22 17:20:49;;;;;;;4.38;3.97;;;;;;;-145.68;40.45;72620.41;10451742;28;20714;-70
2023/07/22 17:25:50;;;;;;;5.75;4.03;;;;;;;-145.68;41.08;72602.44;10402697;22;20712;-64
2023/07/22 17:30:50;;;;;;;5.70;3.72;;;;;;;-145.68;40.85;72604.44;10369733;28;20231;-64
2023/07/22 17:35:51;;;;;;;5.95;3.67;;;;;;;-145.68;40.75;72606.44;10408340;28;20200;-62
2023/07/22 17:40:51;;;;;;;4.75;3.85;;;;;;;-145.68;41.77;72650.41;10410589;28;20286;-64
2023/07/22 17:45:51;;;;;;;14.80;4.15;;;;;;;-145.68;42.54;72680.38;10410454;28;20229;-63
2023/07/22 17:50:52;;;;;;;5.40;3.90;;;;;;;-145.68;43.12;72690.38;10410170;28;20198;-65
2023/07/22 17:55:52;;;;;;;4.97;3.95;;;;;;;-145.68;43.49;72702.34;10413677;28;20216;-65
2023/07/22 18:00:53;;;;;;;9.95;5.43;;;;;;;-145.68;44.64;72730.34;10418025;28;20180;-64
2023/07/22 18:05:53;;;;;;;6.63;4.10;;;;;;;-145.68;44.91;72742.31;10417390;28;20235;-65
2023/07/22 18:10:53;;;;;;;5.50;4.40;;;;;;;-145.68;46.13;72766.31;10417698;28;20295;-65
2023/07/22 18:15:54;;;;;;;4.60;3.92;;;;;;;-145.68;45.71;72722.34;10416865;28;20204;-65
2023/07/22 18:20:54;;;;;;;4.25;3.85;;;;;;;-145.68;45.89;72738.31;10417164;28;20611;-65
2023/07/22 18:25:54;;;;;;;6.60;3.58;;;;;;;-145.68;46.08;72728.34;10416380;28;20607;-66
2023/07/22 18:30:55;;;;;;;5.65;3.92;;;;;;;-145.68;46.34;72756.31;10416624;28;20216;-65
2023/07/22 18:35:57;;;;;;;6.28;3.83;;;;;;;-145.68;47.63;72788.28;10416319;28;20213;-65
2023/07/22 18:40:58;;;;;;;4.30;3.38;;;;;;;-145.68;47.75;72796.28;10416000;28;20267;-65
2023/07/22 18:45:58;;;;;;;4.47;3.80;;;;;;;-145.68;49.40;72860.22;10416228;28;20228;-65
2023/07/22 18:50:58;;;;;;;5.60;3.70;;;;;;;-145.68;51.10;72928.19;10415833;28;20552;-65
2023/07/22 18:55:59;;;;;;;5.75;4.10;;;;;;;-145.68;50.98;72946.16;10415936;28;20652;-66
2023/07/22 19:00:59;;;;;;;5.30;4.18;;;;;;;-145.68;52.78;73038.09;10415557;28;20579;-65
2023/07/22 19:06:00;;;;;;;6.88;4.15;;;;;;;-145.68;53.10;73054.09;10414969;28;20596;-65
2023/07/22 19:11:02;;;;;;;5.53;4.35;;;;;;;-145.68;53.72;73060.09;10415482;28;20731;-65
2023/07/22 19:16:03;;;;;;;6.35;4.55;;;;;;;-145.68;54.21;73064.09;10414631;28;20212;-65
2023/07/22 19:21:03;;;;;;;4.80;4.30;;;;;;;-145.68;55.08;73094.06;10415293;28;20543;-65
2023/07/22 19:26:04;;;;;;;10.02;5.07;;;;;;;-145.68;55.58;73104.06;10414324;28;20236;-66
2023/07/22 19:31:04;;;;;;;7.10;4.28;;;;;;;-145.68;55.96;73114.03;10414589;28;20220;-65
2023/07/22 19:36:09;;;;;;;7.05;4.82;;;;;;;-145.68;56.31;73136.03;10414456;28;20213;-64
2023/07/22 19:41:11;;;;;;;6.30;4.78;;;;;;;-145.68;57.35;73168.00;10413648;28;20315;-67
2023/07/22 19:46:13;;;;;;;5.65;4.57;;;;;;;-145.68;58.29;73188.00;10413913;28;20216;-63
2023/07/22 19:51:14;;;;;;;8.25;4.20;;;;;;;-145.68;58.58;73196.00;10413411;28;20212;-66
2023/07/22 19:56:14;;;;;;;5.75;4.50;;;;;;;-145.68;59.74;73225.97;10413140;28;20193;-66
2023/07/22 20:01:14;;;;;;;5.50;4.40;;;;;;;-145.68;60.02;73229.97;10412794;28;20565;-66
2023/07/22 20:06:15;;;;;;;5.78;4.82;;;;;;;-145.68;60.31;73245.97;10412685;28;20212;-64
2023/07/22 20:11:15;;;;;;;9.15;4.78;;;;;;;-145.68;60.88;73261.94;10412875;28;20246;-65
2023/07/22 20:16:16;;;;;;;7.03;4.50;;;;;;;-145.68;60.98;73277.94;10412173;28;20558;-64
2023/07/22 20:21:16;;;;;;;6.00;4.50;;;;;;;-145.68;62.00;73297.91;10411867;28;20566;-65
2023/07/22 20:26:17;;;;;;;6.85;5.13;;;;;;;-145.68;62.52;73323.91;10412113;28;20246;-63
2023/07/22 20:31:17;;;;;;;5.38;4.38;;;;;;;-145.68;62.92;73331.91;10411985;28;20193;-66
2023/07/22 20:36:17;;;;;;;7.03;4.75;;;;;;;-145.68;63.31;73337.91;10412038;28;20246;-67
2023/07/22 20:41:18;;;;;;;7.75;5.05;;;;;;;-145.68;64.18;73357.88;10411706;28;20189;-67
2023/07/22 20:46:18;;;;;;;8.07;5.38;;;;;;;-145.68;64.89;73367.88;10412120;28;20752;-65
2023/07/22 20:51:20;;;;;;;6.25;4.90;;;;;;;-145.68;65.02;73373.88;10411670;28;20192;-66
2023/07/22 20:56:23;;;;;;;6.32;4.28;;;;;;;-145.68;65.71;73375.88;10411637;28;20187;-67
2023/07/22 21:01:23;;;;;;;9.30;5.20;;;;;;;-145.68;65.91;73395.84;10411488;28;20189;-67
2023/07/22 21:06:25;;;;;;;7.60;4.65;;;;;;;-145.68;66.57;73397.84;10410675;28;20698;-66
2023/07/22 21:11:25;;;;;;;6.28;4.80;;;;;;;-145.68;66.12;73393.84;10411519;28;20191;-66
2023/07/22 21:16:26;;;;;;;7.53;4.68;;;;;;;-145.68;66.79;73411.84;10411122;28;20263;-66
2023/07/22 21:21:26;;;;;;;7.38;4.85;;;;;;;-145.68;66.55;73405.84;10410671;28;20192;-66
2023/07/22 21:26:26;;;;;;;6.75;4.20;;;;;;;-145.68;66.61;73413.84;10410996;28;20683;-66
2023/07/22 21:31:27;;;;;;;5.88;4.40;;;;;;;-145.68;66.45;73417.84;10415445;28;20611;-65
2023/07/22 21:36:27;;;;;;;5.82;4.38;;;;;;;-145.68;66.12;73417.84;10418958;28;20211;-67
2023/07/22 21:41:28;;;;;;;8.95;4.00;;;;;;;-145.68;66.00;73411.84;10418805;28;20189;-66
2023/07/22 21:46:28;;;;;;;6.70;4.05;;;;;;;-145.68;66.25;73421.84;10418145;28;20605;-66
2023/07/22 21:51:28;;;;;;;6.22;4.60;;;;;;;-145.68;66.47;73425.84;10418320;28;20204;-65
2023/07/22 21:56:29;;;;;;;6.53;4.10;;;;;;;-145.68;66.69;73435.84;10400528;28;20189;-66
2023/07/22 22:01:29;;;;;;;6.10;4.30;;;;;;;-145.68;66.39;73429.84;10417867;28;20786;-65
2023/07/22 22:06:29;;;;;;;4.78;3.83;;;;;;;-145.68;66.14;73427.84;10418252;28;20695;-66
2023/07/22 22:11:30;;;;;;;6.78;4.05;;;;;;;-145.68;66.53;73431.84;10417189;28;20278;-66
2023/07/22 22:16:30;;;;;;;5.63;3.75;;;;;;;-145.68;66.60;73427.84;10417535;28;20199;-66
2023/07/22 22:21:31;;;;;;;5.38;4.40;;;;;;;-145.68;66.29;73431.84;10416704;28;20219;-66
2023/07/22 22:26:32;;;;;;;7.15;3.67;;;;;;;-145.68;66.49;73425.84;10416941;28;20307;-66
2023/07/22 22:31:33;;;;;;;4.95;3.92;;;;;;;-145.68;66.10;73427.84;10416758;28;20669;-66
2023/07/22 22:36:34;;;;;;;4.47;3.83;;;;;;;-145.68;65.27;73407.84;10416487;28;20185;-66
2023/07/22 22:41:34;;;;;;;5.18;3.80;;;;;;;-145.68;64.57;73391.84;10416095;28;20208;-67